sensor_id;sensor_type;location;lat;lon;timestamp;P1;durP1;ratioP1;P2;durP2;ratioP2
42294;SDS011;27947;47.556;18.718;2022-08-26T00:01:04;10.25;;;3.83;;
42294;SDS011;27947;47.556;18.718;2022-08-26T00:03:30;7.30;;;3.70;;
42294;SDS011;27947;47.556;18.718;2022-08-26T00:05:55;7.60;;;3.45;;
42294;SDS011;27947;47.556;18.718;2022-08-26T00:08:20;5.15;;;3.75;;
42294;SDS011;27947;47.556;18.718;2022-08-26T00:10:46;10.63;;;4.75;;
42294;SDS011;27947;47.556;18.718;2022-08-26T00:13:12;4.68;;;3.58;;
42294;SDS011;27947;47.556;18.718;2022-08-26T00:15:37;6.72;;;4.30;;
42294;SDS011;27947;47.556;18.718;2022-08-26T00:18:03;10.48;;;4.20;;
42294;SDS011;27947;47.556;18.718;2022-08-26T00:20:29;7.13;;;3.72;;
42294;SDS011;27947;47.556;18.718;2022-08-26T00:22:55;7.25;;;4.20;;
42294;SDS011;27947;47.556;18.718;2022-08-26T00:25:20;9.10;;;4.18;;
42294;SDS011;27947;47.556;18.718;2022-08-26T00:27:46;8.35;;;5.00;;
42294;SDS011;27947;47.556;18.718;2022-08-26T00:30:14;6.43;;;4.10;;
42294;SDS011;27947;47.556;18.718;2022-08-26T00:32:39;4.93;;;3.65;;
42294;SDS011;27947;47.556;18.718;2022-08-26T00:35:05;6.10;;;3.70;;
42294;SDS011;27947;47.556;18.718;2022-08-26T00:37:31;7.50;;;3.45;;
42294;SDS011;27947;47.556;18.718;2022-08-26T00:39:56;7.90;;;4.03;;
42294;SDS011;27947;47.556;18.718;2022-08-26T00:42:22;7.63;;;3.72;;
42294;SDS011;27947;47.556;18.718;2022-08-26T00:44:47;6.18;;;3.85;;
42294;SDS011;27947;47.556;18.718;2022-08-26T00:47:23;5.85;;;4.10;;
42294;SDS011;27947;47.556;18.718;2022-08-26T00:49:53;5.75;;;3.45;;
42294;SDS011;27947;47.556;18.718;2022-08-26T00:52:19;8.35;;;4.05;;
42294;SDS011;27947;47.556;18.718;2022-08-26T00:54:48;11.05;;;3.78;;
42294;SDS011;27947;47.556;18.718;2022-08-26T00:57:16;6.80;;;3.10;;
42294;SDS011;27947;47.556;18.718;2022-08-26T00:59:46;6.22;;;3.63;;
42294;SDS011;27947;47.556;18.718;2022-08-26T01:02:13;8.25;;;4.13;;
42294;SDS011;27947;47.556;18.718;2022-08-26T01:04:38;7.05;;;3.80;;
42294;SDS011;27947;47.556;18.718;2022-08-26T01:07:05;4.80;;;3.72;;
42294;SDS011;27947;47.556;18.718;2022-08-26T01:09:31;9.57;;;3.88;;
42294;SDS011;27947;47.556;18.718;2022-08-26T01:11:58;9.60;;;3.63;;
42294;SDS011;27947;47.556;18.718;2022-08-26T01:14:26;4.18;;;3.13;;
42294;SDS011;27947;47.556;18.718;2022-08-26T01:16:52;9.23;;;3.83;;
42294;SDS011;27947;47.556;18.718;2022-08-26T01:19:20;5.75;;;3.28;;
42294;SDS011;27947;47.556;18.718;2022-08-26T01:21:49;5.82;;;3.67;;
42294;SDS011;27947;47.556;18.718;2022-08-26T01:24:16;6.30;;;3.70;;
42294;SDS011;27947;47.556;18.718;2022-08-26T01:26:42;8.38;;;3.58;;
42294;SDS011;27947;47.556;18.718;2022-08-26T01:29:12;10.15;;;4.75;;
42294;SDS011;27947;47.556;18.718;2022-08-26T01:31:40;13.10;;;3.75;;
42294;SDS011;27947;47.556;18.718;2022-08-26T01:34:11;9.32;;;4.43;;
42294;SDS011;27947;47.556;18.718;2022-08-26T01:36:39;9.50;;;3.65;;
42294;SDS011;27947;47.556;18.718;2022-08-26T01:39:05;5.20;;;2.97;;
42294;SDS011;27947;47.556;18.718;2022-08-26T01:41:31;7.10;;;3.80;;
42294;SDS011;27947;47.556;18.718;2022-08-26T01:43:57;6.22;;;3.97;;
42294;SDS011;27947;47.556;18.718;2022-08-26T01:46:23;5.85;;;3.33;;
42294;SDS011;27947;47.556;18.718;2022-08-26T01:48:50;7.45;;;3.47;;
42294;SDS011;27947;47.556;18.718;2022-08-26T01:51:17;7.70;;;3.25;;
42294;SDS011;27947;47.556;18.718;2022-08-26T01:53:43;7.22;;;3.80;;
42294;SDS011;27947;47.556;18.718;2022-08-26T01:56:09;4.70;;;3.55;;
42294;SDS011;27947;47.556;18.718;2022-08-26T01:58:36;9.80;;;4.10;;
42294;SDS011;27947;47.556;18.718;2022-08-26T02:01:03;5.95;;;3.75;;
42294;SDS011;27947;47.556;18.718;2022-08-26T02:03:29;5.88;;;3.78;;
42294;SDS011;27947;47.556;18.718;2022-08-26T02:05:56;10.73;;;3.97;;
42294;SDS011;27947;47.556;18.718;2022-08-26T02:08:25;9.48;;;4.13;;
42294;SDS011;27947;47.556;18.718;2022-08-26T02:10:51;6.72;;;3.65;;
42294;SDS011;27947;47.556;18.718;2022-08-26T02:13:17;7.55;;;3.85;;
42294;SDS011;27947;47.556;18.718;2022-08-26T02:15:42;10.60;;;4.03;;
42294;SDS011;27947;47.556;18.718;2022-08-26T02:18:09;6.07;;;4.00;;
42294;SDS011;27947;47.556;18.718;2022-08-26T02:20:35;12.63;;;4.63;;
42294;SDS011;27947;47.556;18.718;2022-08-26T02:23:00;5.68;;;3.65;;
42294;SDS011;27947;47.556;18.718;2022-08-26T02:27:51;6.47;;;3.63;;
42294;SDS011;27947;47.556;18.718;2022-08-26T02:30:18;7.35;;;3.63;;
42294;SDS011;27947;47.556;18.718;2022-08-26T02:32:44;8.82;;;4.32;;
42294;SDS011;27947;47.556;18.718;2022-08-26T02:35:11;8.40;;;3.95;;
42294;SDS011;27947;47.556;18.718;2022-08-26T02:37:37;4.93;;;3.47;;
42294;SDS011;27947;47.556;18.718;2022-08-26T02:40:02;9.20;;;3.90;;
42294;SDS011;27947;47.556;18.718;2022-08-26T02:42:28;9.18;;;4.00;;
42294;SDS011;27947;47.556;18.718;2022-08-26T02:44:53;8.10;;;4.43;;
42294;SDS011;27947;47.556;18.718;2022-08-26T02:47:19;7.22;;;3.72;;
42294;SDS011;27947;47.556;18.718;2022-08-26T02:49:44;10.30;;;3.95;;
42294;SDS011;27947;47.556;18.718;2022-08-26T02:52:10;13.70;;;4.45;;
42294;SDS011;27947;47.556;18.718;2022-08-26T02:54:35;5.78;;;3.80;;
42294;SDS011;27947;47.556;18.718;2022-08-26T02:57:01;6.10;;;3.45;;
42294;SDS011;27947;47.556;18.718;2022-08-26T02:59:27;8.32;;;3.83;;
42294;SDS011;27947;47.556;18.718;2022-08-26T03:01:53;9.25;;;3.55;;
42294;SDS011;27947;47.556;18.718;2022-08-26T03:04:19;5.40;;;4.55;;
42294;SDS011;27947;47.556;18.718;2022-08-26T03:06:45;6.82;;;3.60;;
42294;SDS011;27947;47.556;18.718;2022-08-26T03:09:11;7.57;;;3.83;;
42294;SDS011;27947;47.556;18.718;2022-08-26T03:11:37;10.70;;;3.72;;
42294;SDS011;27947;47.556;18.718;2022-08-26T03:14:02;8.13;;;4.10;;
42294;SDS011;27947;47.556;18.718;2022-08-26T03:16:32;5.53;;;3.38;;
42294;SDS011;27947;47.556;18.718;2022-08-26T03:18:58;10.02;;;4.25;;
42294;SDS011;27947;47.556;18.718;2022-08-26T03:21:23;11.55;;;3.47;;
42294;SDS011;27947;47.556;18.718;2022-08-26T03:23:49;11.20;;;4.07;;
42294;SDS011;27947;47.556;18.718;2022-08-26T03:26:15;5.40;;;3.28;;
42294;SDS011;27947;47.556;18.718;2022-08-26T03:28:40;7.38;;;3.38;;
42294;SDS011;27947;47.556;18.718;2022-08-26T03:31:26;6.75;;;3.45;;
42294;SDS011;27947;47.556;18.718;2022-08-26T03:33:51;14.65;;;4.82;;
42294;SDS011;27947;47.556;18.718;2022-08-26T03:36:17;8.88;;;4.53;;
42294;SDS011;27947;47.556;18.718;2022-08-26T03:38:43;12.13;;;4.20;;
42294;SDS011;27947;47.556;18.718;2022-08-26T03:41:08;7.68;;;3.92;;
42294;SDS011;27947;47.556;18.718;2022-08-26T03:43:36;13.93;;;3.88;;
42294;SDS011;27947;47.556;18.718;2022-08-26T03:46:05;12.20;;;4.32;;
42294;SDS011;27947;47.556;18.718;2022-08-26T03:48:30;6.57;;;4.13;;
42294;SDS011;27947;47.556;18.718;2022-08-26T03:50:56;12.05;;;4.63;;
42294;SDS011;27947;47.556;18.718;2022-08-26T03:53:21;7.65;;;3.70;;
42294;SDS011;27947;47.556;18.718;2022-08-26T03:55:47;10.10;;;3.85;;
42294;SDS011;27947;47.556;18.718;2022-08-26T03:58:13;15.13;;;4.07;;
42294;SDS011;27947;47.556;18.718;2022-08-26T04:00:38;5.93;;;3.58;;
42294;SDS011;27947;47.556;18.718;2022-08-26T04:03:04;7.15;;;3.28;;
42294;SDS011;27947;47.556;18.718;2022-08-26T04:05:29;8.38;;;3.65;;
42294;SDS011;27947;47.556;18.718;2022-08-26T04:07:54;8.07;;;3.90;;
42294;SDS011;27947;47.556;18.718;2022-08-26T04:10:20;6.07;;;3.58;;
42294;SDS011;27947;47.556;18.718;2022-08-26T04:12:48;13.05;;;3.75;;
42294;SDS011;27947;47.556;18.718;2022-08-26T04:15:14;6.00;;;3.92;;
42294;SDS011;27947;47.556;18.718;2022-08-26T04:17:40;6.97;;;3.63;;
42294;SDS011;27947;47.556;18.718;2022-08-26T04:20:06;8.02;;;3.35;;
42294;SDS011;27947;47.556;18.718;2022-08-26T04:22:32;7.57;;;3.85;;
42294;SDS011;27947;47.556;18.718;2022-08-26T04:24:57;8.95;;;3.45;;
42294;SDS011;27947;47.556;18.718;2022-08-26T04:27:22;4.57;;;3.55;;
42294;SDS011;27947;47.556;18.718;2022-08-26T04:29:48;8.70;;;3.42;;
42294;SDS011;27947;47.556;18.718;2022-08-26T04:32:13;8.57;;;3.63;;
42294;SDS011;27947;47.556;18.718;2022-08-26T04:34:39;5.85;;;3.60;;
42294;SDS011;27947;47.556;18.718;2022-08-26T04:37:05;9.02;;;3.50;;
42294;SDS011;27947;47.556;18.718;2022-08-26T04:39:30;7.45;;;3.63;;
42294;SDS011;27947;47.556;18.718;2022-08-26T04:41:56;12.60;;;4.45;;
42294;SDS011;27947;47.556;18.718;2022-08-26T04:44:22;7.25;;;4.40;;
42294;SDS011;27947;47.556;18.718;2022-08-26T04:46:49;7.13;;;5.25;;
42294;SDS011;27947;47.556;18.718;2022-08-26T04:49:15;9.18;;;4.88;;
42294;SDS011;27947;47.556;18.718;2022-08-26T04:51:40;13.48;;;4.55;;
42294;SDS011;27947;47.556;18.718;2022-08-26T04:54:06;12.20;;;5.40;;
42294;SDS011;27947;47.556;18.718;2022-08-26T04:56:33;14.02;;;5.18;;
42294;SDS011;27947;47.556;18.718;2022-08-26T04:58:59;10.50;;;5.38;;
42294;SDS011;27947;47.556;18.718;2022-08-26T05:01:25;11.75;;;6.07;;
42294;SDS011;27947;47.556;18.718;2022-08-26T05:03:50;8.70;;;6.13;;
42294;SDS011;27947;47.556;18.718;2022-08-26T05:06:16;11.70;;;5.85;;
42294;SDS011;27947;47.556;18.718;2022-08-26T05:08:43;11.38;;;5.72;;
42294;SDS011;27947;47.556;18.718;2022-08-26T05:11:08;7.90;;;5.78;;
42294;SDS011;27947;47.556;18.718;2022-08-26T05:13:34;10.35;;;5.65;;
42294;SDS011;27947;47.556;18.718;2022-08-26T05:16:03;13.07;;;5.88;;
42294;SDS011;27947;47.556;18.718;2022-08-26T05:18:29;10.73;;;5.50;;
42294;SDS011;27947;47.556;18.718;2022-08-26T05:20:55;11.23;;;5.85;;
42294;SDS011;27947;47.556;18.718;2022-08-26T05:23:22;9.88;;;6.20;;
42294;SDS011;27947;47.556;18.718;2022-08-26T05:25:48;10.13;;;6.25;;
42294;SDS011;27947;47.556;18.718;2022-08-26T05:28:15;12.50;;;6.65;;
42294;SDS011;27947;47.556;18.718;2022-08-26T05:30:41;11.20;;;5.97;;
42294;SDS011;27947;47.556;18.718;2022-08-26T05:33:07;10.85;;;6.30;;
42294;SDS011;27947;47.556;18.718;2022-08-26T05:35:33;24.52;;;8.27;;
42294;SDS011;27947;47.556;18.718;2022-08-26T05:37:59;18.23;;;7.43;;
42294;SDS011;27947;47.556;18.718;2022-08-26T05:40:25;12.95;;;6.22;;
42294;SDS011;27947;47.556;18.718;2022-08-26T05:42:51;13.02;;;6.45;;
42294;SDS011;27947;47.556;18.718;2022-08-26T05:45:17;9.73;;;5.90;;
42294;SDS011;27947;47.556;18.718;2022-08-26T05:47:43;12.50;;;6.28;;
42294;SDS011;27947;47.556;18.718;2022-08-26T05:50:08;13.10;;;4.97;;
42294;SDS011;27947;47.556;18.718;2022-08-26T05:52:34;7.80;;;4.53;;
42294;SDS011;27947;47.556;18.718;2022-08-26T05:54:59;6.97;;;4.07;;
42294;SDS011;27947;47.556;18.718;2022-08-26T05:57:26;12.38;;;5.15;;
42294;SDS011;27947;47.556;18.718;2022-08-26T05:59:52;14.45;;;5.13;;
42294;SDS011;27947;47.556;18.718;2022-08-26T06:02:17;17.33;;;4.88;;
42294;SDS011;27947;47.556;18.718;2022-08-26T06:04:42;12.20;;;4.75;;
42294;SDS011;27947;47.556;18.718;2022-08-26T06:07:08;9.63;;;4.25;;
42294;SDS011;27947;47.556;18.718;2022-08-26T06:09:35;15.50;;;4.88;;
42294;SDS011;27947;47.556;18.718;2022-08-26T06:12:01;7.15;;;3.72;;
42294;SDS011;27947;47.556;18.718;2022-08-26T06:14:26;6.85;;;3.88;;
42294;SDS011;27947;47.556;18.718;2022-08-26T06:16:52;11.90;;;4.13;;
42294;SDS011;27947;47.556;18.718;2022-08-26T06:19:17;8.82;;;4.15;;
42294;SDS011;27947;47.556;18.718;2022-08-26T06:21:44;13.25;;;4.60;;
42294;SDS011;27947;47.556;18.718;2022-08-26T06:24:11;11.18;;;4.10;;
42294;SDS011;27947;47.556;18.718;2022-08-26T06:26:56;7.40;;;3.38;;
42294;SDS011;27947;47.556;18.718;2022-08-26T06:29:22;9.38;;;3.88;;
42294;SDS011;27947;47.556;18.718;2022-08-26T06:31:49;8.85;;;3.80;;
42294;SDS011;27947;47.556;18.718;2022-08-26T06:34:14;9.85;;;4.25;;
42294;SDS011;27947;47.556;18.718;2022-08-26T06:36:41;8.57;;;4.05;;
42294;SDS011;27947;47.556;18.718;2022-08-26T06:39:07;10.30;;;3.60;;
42294;SDS011;27947;47.556;18.718;2022-08-26T06:41:34;8.15;;;3.30;;
42294;SDS011;27947;47.556;18.718;2022-08-26T06:44:00;10.55;;;3.53;;
42294;SDS011;27947;47.556;18.718;2022-08-26T06:46:27;14.70;;;5.15;;
42294;SDS011;27947;47.556;18.718;2022-08-26T06:48:52;11.30;;;4.00;;
42294;SDS011;27947;47.556;18.718;2022-08-26T06:51:20;19.00;;;5.65;;
42294;SDS011;27947;47.556;18.718;2022-08-26T06:53:47;9.82;;;3.97;;
42294;SDS011;27947;47.556;18.718;2022-08-26T06:56:13;7.70;;;3.67;;
42294;SDS011;27947;47.556;18.718;2022-08-26T06:58:39;9.65;;;3.80;;
42294;SDS011;27947;47.556;18.718;2022-08-26T07:01:13;7.03;;;3.92;;
42294;SDS011;27947;47.556;18.718;2022-08-26T07:03:38;10.63;;;4.10;;
42294;SDS011;27947;47.556;18.718;2022-08-26T07:06:04;11.65;;;4.00;;
42294;SDS011;27947;47.556;18.718;2022-08-26T07:08:29;9.40;;;4.18;;
42294;SDS011;27947;47.556;18.718;2022-08-26T07:10:55;15.40;;;3.83;;
42294;SDS011;27947;47.556;18.718;2022-08-26T07:13:20;9.75;;;3.88;;
42294;SDS011;27947;47.556;18.718;2022-08-26T07:15:47;14.40;;;3.90;;
42294;SDS011;27947;47.556;18.718;2022-08-26T07:18:13;16.90;;;3.88;;
42294;SDS011;27947;47.556;18.718;2022-08-26T07:20:38;13.07;;;3.13;;
42294;SDS011;27947;47.556;18.718;2022-08-26T07:23:05;15.77;;;4.35;;
42294;SDS011;27947;47.556;18.718;2022-08-26T07:25:30;9.05;;;3.47;;
42294;SDS011;27947;47.556;18.718;2022-08-26T07:27:55;12.85;;;4.55;;
42294;SDS011;27947;47.556;18.718;2022-08-26T07:30:21;9.90;;;4.88;;
42294;SDS011;27947;47.556;18.718;2022-08-26T07:32:46;9.93;;;3.70;;
42294;SDS011;27947;47.556;18.718;2022-08-26T07:35:12;8.23;;;3.83;;
42294;SDS011;27947;47.556;18.718;2022-08-26T07:37:38;20.05;;;5.35;;
42294;SDS011;27947;47.556;18.718;2022-08-26T07:40:03;8.68;;;3.28;;
42294;SDS011;27947;47.556;18.718;2022-08-26T07:42:28;8.50;;;3.65;;
42294;SDS011;27947;47.556;18.718;2022-08-26T07:44:54;13.32;;;3.63;;
42294;SDS011;27947;47.556;18.718;2022-08-26T07:47:19;9.35;;;3.20;;
42294;SDS011;27947;47.556;18.718;2022-08-26T07:49:45;11.52;;;3.25;;
42294;SDS011;27947;47.556;18.718;2022-08-26T07:52:10;18.27;;;3.22;;
42294;SDS011;27947;47.556;18.718;2022-08-26T07:54:35;15.73;;;2.70;;
42294;SDS011;27947;47.556;18.718;2022-08-26T07:57:02;9.90;;;3.28;;
42294;SDS011;27947;47.556;18.718;2022-08-26T07:59:27;11.40;;;3.47;;
42294;SDS011;27947;47.556;18.718;2022-08-26T08:01:53;9.95;;;3.45;;
42294;SDS011;27947;47.556;18.718;2022-08-26T08:04:18;8.40;;;3.92;;
42294;SDS011;27947;47.556;18.718;2022-08-26T08:06:44;10.10;;;3.38;;
42294;SDS011;27947;47.556;18.718;2022-08-26T08:09:10;13.45;;;3.25;;
42294;SDS011;27947;47.556;18.718;2022-08-26T08:11:36;11.65;;;3.55;;
42294;SDS011;27947;47.556;18.718;2022-08-26T08:14:01;12.95;;;2.97;;
42294;SDS011;27947;47.556;18.718;2022-08-26T08:16:27;9.05;;;3.17;;
42294;SDS011;27947;47.556;18.718;2022-08-26T08:18:54;8.73;;;3.50;;
42294;SDS011;27947;47.556;18.718;2022-08-26T08:21:21;10.27;;;2.90;;
42294;SDS011;27947;47.556;18.718;2022-08-26T08:23:46;17.63;;;3.30;;
42294;SDS011;27947;47.556;18.718;2022-08-26T08:26:11;6.35;;;2.95;;
42294;SDS011;27947;47.556;18.718;2022-08-26T08:28:37;7.90;;;2.88;;
42294;SDS011;27947;47.556;18.718;2022-08-26T08:31:02;9.68;;;3.20;;
42294;SDS011;27947;47.556;18.718;2022-08-26T08:33:29;13.95;;;3.17;;
42294;SDS011;27947;47.556;18.718;2022-08-26T08:35:55;11.32;;;3.03;;
42294;SDS011;27947;47.556;18.718;2022-08-26T08:38:21;11.43;;;2.75;;
42294;SDS011;27947;47.556;18.718;2022-08-26T08:40:46;11.32;;;2.72;;
42294;SDS011;27947;47.556;18.718;2022-08-26T08:43:13;11.00;;;3.42;;
42294;SDS011;27947;47.556;18.718;2022-08-26T08:45:41;12.13;;;3.22;;
42294;SDS011;27947;47.556;18.718;2022-08-26T08:48:15;8.02;;;2.80;;
42294;SDS011;27947;47.556;18.718;2022-08-26T08:50:43;14.90;;;3.38;;
42294;SDS011;27947;47.556;18.718;2022-08-26T08:56:02;8.57;;;3.05;;
42294;SDS011;27947;47.556;18.718;2022-08-26T09:01:03;5.63;;;2.55;;
42294;SDS011;27947;47.556;18.718;2022-08-26T09:06:33;9.13;;;3.03;;
42294;SDS011;27947;47.556;18.718;2022-08-26T09:08:58;14.35;;;2.88;;
42294;SDS011;27947;47.556;18.718;2022-08-26T09:11:25;7.10;;;2.83;;
42294;SDS011;27947;47.556;18.718;2022-08-26T09:13:51;9.00;;;2.80;;
42294;SDS011;27947;47.556;18.718;2022-08-26T09:16:24;5.53;;;2.97;;
42294;SDS011;27947;47.556;18.718;2022-08-26T09:21:35;10.57;;;3.60;;
42294;SDS011;27947;47.556;18.718;2022-08-26T09:24:01;6.43;;;3.10;;
42294;SDS011;27947;47.556;18.718;2022-08-26T09:26:41;10.60;;;3.17;;
42294;SDS011;27947;47.556;18.718;2022-08-26T09:29:20;6.43;;;2.75;;
42294;SDS011;27947;47.556;18.718;2022-08-26T09:31:45;5.15;;;2.65;;
42294;SDS011;27947;47.556;18.718;2022-08-26T09:36:41;9.77;;;3.28;;
42294;SDS011;27947;47.556;18.718;2022-08-26T09:42:00;7.32;;;3.88;;
42294;SDS011;27947;47.556;18.718;2022-08-26T09:44:25;7.82;;;2.65;;
42294;SDS011;27947;47.556;18.718;2022-08-26T09:46:54;6.95;;;2.90;;
42294;SDS011;27947;47.556;18.718;2022-08-26T09:52:21;6.53;;;3.00;;
42294;SDS011;27947;47.556;18.718;2022-08-26T09:55:02;5.45;;;3.30;;
42294;SDS011;27947;47.556;18.718;2022-08-26T09:57:29;10.32;;;2.72;;
42294;SDS011;27947;47.556;18.718;2022-08-26T09:59:54;7.82;;;3.10;;
42294;SDS011;27947;47.556;18.718;2022-08-26T10:04:58;6.80;;;2.95;;
42294;SDS011;27947;47.556;18.718;2022-08-26T10:07:44;10.82;;;3.50;;
42294;SDS011;27947;47.556;18.718;2022-08-26T10:10:12;9.13;;;3.15;;
42294;SDS011;27947;47.556;18.718;2022-08-26T10:12:41;6.88;;;2.92;;
42294;SDS011;27947;47.556;18.718;2022-08-26T10:15:08;5.13;;;2.42;;
42294;SDS011;27947;47.556;18.718;2022-08-26T10:17:36;8.35;;;2.72;;
42294;SDS011;27947;47.556;18.718;2022-08-26T10:22:47;15.20;;;2.92;;
42294;SDS011;27947;47.556;18.718;2022-08-26T10:25:17;15.38;;;2.40;;
42294;SDS011;27947;47.556;18.718;2022-08-26T10:30:14;10.15;;;3.22;;
42294;SDS011;27947;47.556;18.718;2022-08-26T10:32:50;9.48;;;2.92;;
42294;SDS011;27947;47.556;18.718;2022-08-26T10:35:16;10.80;;;3.30;;
42294;SDS011;27947;47.556;18.718;2022-08-26T10:37:54;12.55;;;3.28;;
42294;SDS011;27947;47.556;18.718;2022-08-26T10:40:28;5.32;;;2.47;;
42294;SDS011;27947;47.556;18.718;2022-08-26T10:45:21;9.60;;;3.20;;
42294;SDS011;27947;47.556;18.718;2022-08-26T10:50:21;14.45;;;2.65;;
42294;SDS011;27947;47.556;18.718;2022-08-26T10:55:16;13.30;;;2.70;;
42294;SDS011;27947;47.556;18.718;2022-08-26T11:00:29;12.20;;;3.25;;
42294;SDS011;27947;47.556;18.718;2022-08-26T11:08:34;7.13;;;2.42;;
42294;SDS011;27947;47.556;18.718;2022-08-26T11:11:09;10.82;;;2.53;;
42294;SDS011;27947;47.556;18.718;2022-08-26T11:16:39;12.63;;;4.43;;
42294;SDS011;27947;47.556;18.718;2022-08-26T11:19:04;11.65;;;2.47;;
42294;SDS011;27947;47.556;18.718;2022-08-26T11:26:58;8.52;;;2.22;;
42294;SDS011;27947;47.556;18.718;2022-08-26T11:32:07;7.90;;;2.40;;
42294;SDS011;27947;47.556;18.718;2022-08-26T11:34:52;7.43;;;2.67;;
42294;SDS011;27947;47.556;18.718;2022-08-26T11:37:18;9.00;;;2.92;;
42294;SDS011;27947;47.556;18.718;2022-08-26T11:39:49;8.90;;;2.38;;
42294;SDS011;27947;47.556;18.718;2022-08-26T11:42:18;9.73;;;2.60;;
42294;SDS011;27947;47.556;18.718;2022-08-26T11:44:46;10.77;;;2.40;;
42294;SDS011;27947;47.556;18.718;2022-08-26T11:47:13;6.22;;;2.40;;
42294;SDS011;27947;47.556;18.718;2022-08-26T11:49:39;7.15;;;2.83;;
42294;SDS011;27947;47.556;18.718;2022-08-26T11:54:33;7.07;;;2.65;;
42294;SDS011;27947;47.556;18.718;2022-08-26T11:56:58;12.75;;;2.75;;
42294;SDS011;27947;47.556;18.718;2022-08-26T11:59:25;8.63;;;2.40;;
42294;SDS011;27947;47.556;18.718;2022-08-26T12:01:57;9.50;;;3.50;;
42294;SDS011;27947;47.556;18.718;2022-08-26T12:04:25;5.35;;;2.42;;
42294;SDS011;27947;47.556;18.718;2022-08-26T12:06:51;12.85;;;2.42;;
42294;SDS011;27947;47.556;18.718;2022-08-26T12:09:21;7.85;;;2.45;;
42294;SDS011;27947;47.556;18.718;2022-08-26T12:11:46;13.95;;;3.20;;
42294;SDS011;27947;47.556;18.718;2022-08-26T12:16:40;7.20;;;2.47;;
42294;SDS011;27947;47.556;18.718;2022-08-26T12:21:46;7.53;;;2.35;;
42294;SDS011;27947;47.556;18.718;2022-08-26T12:24:15;8.98;;;2.10;;
42294;SDS011;27947;47.556;18.718;2022-08-26T12:26:41;10.55;;;2.83;;
42294;SDS011;27947;47.556;18.718;2022-08-26T12:29:21;10.90;;;3.17;;
42294;SDS011;27947;47.556;18.718;2022-08-26T12:31:49;8.45;;;2.55;;
42294;SDS011;27947;47.556;18.718;2022-08-26T12:34:15;5.85;;;2.35;;
42294;SDS011;27947;47.556;18.718;2022-08-26T12:36:54;5.57;;;2.40;;
42294;SDS011;27947;47.556;18.718;2022-08-26T12:39:31;7.20;;;3.13;;
42294;SDS011;27947;47.556;18.718;2022-08-26T12:44:40;8.00;;;3.03;;
42294;SDS011;27947;47.556;18.718;2022-08-26T12:52:32;9.70;;;2.50;;
42294;SDS011;27947;47.556;18.718;2022-08-26T12:54:59;10.13;;;2.75;;
42294;SDS011;27947;47.556;18.718;2022-08-26T12:57:26;11.82;;;2.70;;
42294;SDS011;27947;47.556;18.718;2022-08-26T12:59:52;10.57;;;2.80;;
42294;SDS011;27947;47.556;18.718;2022-08-26T13:02:33;13.52;;;3.00;;
42294;SDS011;27947;47.556;18.718;2022-08-26T13:04:59;7.00;;;2.70;;
42294;SDS011;27947;47.556;18.718;2022-08-26T13:07:25;9.68;;;3.03;;
42294;SDS011;27947;47.556;18.718;2022-08-26T13:09:51;7.40;;;3.03;;
42294;SDS011;27947;47.556;18.718;2022-08-26T13:12:21;7.35;;;2.55;;
42294;SDS011;27947;47.556;18.718;2022-08-26T13:14:47;11.10;;;3.45;;
42294;SDS011;27947;47.556;18.718;2022-08-26T13:17:12;6.10;;;2.88;;
42294;SDS011;27947;47.556;18.718;2022-08-26T13:19:38;7.20;;;3.10;;
42294;SDS011;27947;47.556;18.718;2022-08-26T13:22:03;13.77;;;3.10;;
42294;SDS011;27947;47.556;18.718;2022-08-26T13:24:31;6.90;;;2.50;;
42294;SDS011;27947;47.556;18.718;2022-08-26T13:26:57;4.43;;;2.55;;
42294;SDS011;27947;47.556;18.718;2022-08-26T13:29:22;10.90;;;2.85;;
42294;SDS011;27947;47.556;18.718;2022-08-26T13:31:48;6.63;;;2.78;;
42294;SDS011;27947;47.556;18.718;2022-08-26T13:34:14;7.43;;;2.58;;
42294;SDS011;27947;47.556;18.718;2022-08-26T13:36:42;10.15;;;2.63;;
42294;SDS011;27947;47.556;18.718;2022-08-26T13:39:09;10.50;;;2.55;;
42294;SDS011;27947;47.556;18.718;2022-08-26T13:41:34;11.27;;;2.97;;
42294;SDS011;27947;47.556;18.718;2022-08-26T13:44:00;9.00;;;2.72;;
42294;SDS011;27947;47.556;18.718;2022-08-26T13:46:26;7.93;;;3.03;;
42294;SDS011;27947;47.556;18.718;2022-08-26T13:48:52;9.15;;;2.67;;
42294;SDS011;27947;47.556;18.718;2022-08-26T13:51:18;7.85;;;2.65;;
42294;SDS011;27947;47.556;18.718;2022-08-26T13:53:46;9.77;;;2.60;;
42294;SDS011;27947;47.556;18.718;2022-08-26T13:56:11;4.38;;;2.33;;
42294;SDS011;27947;47.556;18.718;2022-08-26T13:58:37;10.63;;;2.50;;
42294;SDS011;27947;47.556;18.718;2022-08-26T14:01:02;6.32;;;2.30;;
42294;SDS011;27947;47.556;18.718;2022-08-26T14:03:28;10.88;;;2.55;;
42294;SDS011;27947;47.556;18.718;2022-08-26T14:05:53;6.85;;;2.30;;
42294;SDS011;27947;47.556;18.718;2022-08-26T14:08:19;6.95;;;2.50;;
42294;SDS011;27947;47.556;18.718;2022-08-26T14:10:45;6.78;;;2.67;;
42294;SDS011;27947;47.556;18.718;2022-08-26T14:13:11;5.50;;;2.33;;
42294;SDS011;27947;47.556;18.718;2022-08-26T14:15:36;4.80;;;2.20;;
42294;SDS011;27947;47.556;18.718;2022-08-26T14:18:03;13.70;;;2.40;;
42294;SDS011;27947;47.556;18.718;2022-08-26T14:20:29;8.25;;;2.85;;
42294;SDS011;27947;47.556;18.718;2022-08-26T14:22:55;3.67;;;2.28;;
42294;SDS011;27947;47.556;18.718;2022-08-26T14:25:21;6.55;;;2.80;;
42294;SDS011;27947;47.556;18.718;2022-08-26T14:27:47;5.95;;;2.25;;
42294;SDS011;27947;47.556;18.718;2022-08-26T14:30:13;12.52;;;2.38;;
42294;SDS011;27947;47.556;18.718;2022-08-26T14:32:39;6.72;;;2.65;;
42294;SDS011;27947;47.556;18.718;2022-08-26T14:35:07;4.80;;;2.33;;
42294;SDS011;27947;47.556;18.718;2022-08-26T14:37:32;8.35;;;2.35;;
42294;SDS011;27947;47.556;18.718;2022-08-26T14:39:58;8.77;;;2.38;;
42294;SDS011;27947;47.556;18.718;2022-08-26T14:42:25;8.10;;;2.75;;
42294;SDS011;27947;47.556;18.718;2022-08-26T14:44:55;7.90;;;2.35;;
42294;SDS011;27947;47.556;18.718;2022-08-26T14:47:21;6.68;;;2.30;;
42294;SDS011;27947;47.556;18.718;2022-08-26T14:49:48;7.70;;;2.38;;
42294;SDS011;27947;47.556;18.718;2022-08-26T14:52:13;6.10;;;2.40;;
42294;SDS011;27947;47.556;18.718;2022-08-26T14:54:38;6.07;;;2.53;;
42294;SDS011;27947;47.556;18.718;2022-08-26T14:57:07;14.90;;;2.88;;
42294;SDS011;27947;47.556;18.718;2022-08-26T14:59:34;6.90;;;2.47;;
42294;SDS011;27947;47.556;18.718;2022-08-26T15:02:00;5.70;;;2.40;;
42294;SDS011;27947;47.556;18.718;2022-08-26T15:04:26;14.02;;;2.50;;
42294;SDS011;27947;47.556;18.718;2022-08-26T15:06:52;6.85;;;2.60;;
42294;SDS011;27947;47.556;18.718;2022-08-26T15:09:18;8.70;;;2.50;;
42294;SDS011;27947;47.556;18.718;2022-08-26T15:11:43;5.50;;;2.40;;
42294;SDS011;27947;47.556;18.718;2022-08-26T15:14:09;12.88;;;2.70;;
42294;SDS011;27947;47.556;18.718;2022-08-26T15:16:34;8.52;;;3.00;;
42294;SDS011;27947;47.556;18.718;2022-08-26T15:19:00;6.75;;;2.97;;
42294;SDS011;27947;47.556;18.718;2022-08-26T15:21:28;9.23;;;3.38;;
42294;SDS011;27947;47.556;18.718;2022-08-26T15:23:54;6.07;;;2.83;;
42294;SDS011;27947;47.556;18.718;2022-08-26T15:26:20;9.80;;;2.83;;
42294;SDS011;27947;47.556;18.718;2022-08-26T15:28:46;6.38;;;3.00;;
42294;SDS011;27947;47.556;18.718;2022-08-26T15:31:11;5.93;;;2.60;;
42294;SDS011;27947;47.556;18.718;2022-08-26T15:33:37;8.35;;;2.47;;
42294;SDS011;27947;47.556;18.718;2022-08-26T15:36:04;5.72;;;2.50;;
42294;SDS011;27947;47.556;18.718;2022-08-26T15:38:30;12.73;;;3.25;;
42294;SDS011;27947;47.556;18.718;2022-08-26T15:40:56;4.32;;;2.20;;